sensor_id;sensor_type;location;lat;lon;timestamp;pressure;altitude;pressure_sealevel;temperature
65316;BMP280;51920;53.952;10.292;2023-12-20T00:01:15;100376.66;;;5.12
65316;BMP280;51920;53.952;10.292;2023-12-20T00:03:42;100374.81;;;5.16
65316;BMP280;51920;53.952;10.292;2023-12-20T00:06:10;100378.31;;;5.17
65316;BMP280;51920;53.952;10.292;2023-12-20T00:08:37;100376.72;;;5.16
65316;BMP280;51920;53.952;10.292;2023-12-20T00:11:04;100373.13;;;5.08
65316;BMP280;51920;53.952;10.292;2023-12-20T00:13:31;100369.03;;;5.14
65316;BMP280;51920;53.952;10.292;2023-12-20T00:15:58;100361.91;;;5.22
65316;BMP280;51920;53.952;10.292;2023-12-20T00:18:24;100350.84;;;5.23
65316;BMP280;51920;53.952;10.292;2023-12-20T00:20:51;100347.47;;;5.26
65316;BMP280;51920;53.952;10.292;2023-12-20T00:23:18;100348.34;;;5.31
65316;BMP280;51920;53.952;10.292;2023-12-20T00:25:45;100343.59;;;5.24
65316;BMP280;51920;53.952;10.292;2023-12-20T00:28:12;100329.00;;;5.25
65316;BMP280;51920;53.952;10.292;2023-12-20T00:30:39;100329.59;;;5.18
65316;BMP280;51920;53.952;10.292;2023-12-20T00:33:05;100332.13;;;5.11
65316;BMP280;51920;53.952;10.292;2023-12-20T00:35:33;100332.22;;;5.15
65316;BMP280;51920;53.952;10.292;2023-12-20T00:37:59;100338.38;;;5.15
65316;BMP280;51920;53.952;10.292;2023-12-20T00:40:27;100340.34;;;5.18
65316;BMP280;51920;53.952;10.292;2023-12-20T00:42:54;100340.44;;;5.22
65316;BMP280;51920;53.952;10.292;2023-12-20T00:45:21;100343.75;;;5.15
65316;BMP280;51920;53.952;10.292;2023-12-20T00:47:48;100334.03;;;5.26
65316;BMP280;51920;53.952;10.292;2023-12-20T00:50:16;100327.66;;;5.31
65316;BMP280;51920;53.952;10.292;2023-12-20T00:52:42;100331.94;;;5.20
65316;BMP280;51920;53.952;10.292;2023-12-20T00:55:09;100319.75;;;5.22
65316;BMP280;51920;53.952;10.292;2023-12-20T00:57:36;100324.22;;;5.18
65316;BMP280;51920;53.952;10.292;2023-12-20T01:00:04;100328.06;;;5.17
65316;BMP280;51920;53.952;10.292;2023-12-20T01:02:31;100322.34;;;5.19
65316;BMP280;51920;53.952;10.292;2023-12-20T01:04:57;100322.34;;;5.19
65316;BMP280;51920;53.952;10.292;2023-12-20T01:07:24;100324.88;;;5.12
65316;BMP280;51920;53.952;10.292;2023-12-20T01:09:51;100321.22;;;5.20
65316;BMP280;51920;53.952;10.292;2023-12-20T01:12:18;100311.97;;;5.17
65316;BMP280;51920;53.952;10.292;2023-12-20T01:14:46;100300.38;;;5.13
65316;BMP280;51920;53.952;10.292;2023-12-20T01:17:13;100307.22;;;5.11
65316;BMP280;51920;53.952;10.292;2023-12-20T01:19:40;100308.25;;;5.06
65316;BMP280;51920;53.952;10.292;2023-12-20T01:22:07;100306.78;;;5.09
65316;BMP280;51920;53.952;10.292;2023-12-20T01:24:34;100306.25;;;5.03
65316;BMP280;51920;53.952;10.292;2023-12-20T01:27:01;100306.44;;;5.10
65316;BMP280;51920;53.952;10.292;2023-12-20T01:29:28;100308.44;;;5.13
65316;BMP280;51920;53.952;10.292;2023-12-20T01:31:55;100304.44;;;5.07
65316;BMP280;51920;53.952;10.292;2023-12-20T01:34:22;100299.66;;;5.16
65316;BMP280;51920;53.952;10.292;2023-12-20T01:36:49;100307.44;;;5.21
65316;BMP280;51920;53.952;10.292;2023-12-20T01:39:17;100306.41;;;5.26
65316;BMP280;51920;53.952;10.292;2023-12-20T01:41:46;100308.47;;;5.33
65316;BMP280;51920;53.952;10.292;2023-12-20T01:44:13;100301.47;;;5.28
65316;BMP280;51920;53.952;10.292;2023-12-20T01:46:40;100297.91;;;5.40
65316;BMP280;51920;53.952;10.292;2023-12-20T01:49:07;100288.63;;;5.37
65316;BMP280;51920;53.952;10.292;2023-12-20T01:51:35;100287.84;;;5.37
65316;BMP280;51920;53.952;10.292;2023-12-20T01:54:03;100289.38;;;5.38
65316;BMP280;51920;53.952;10.292;2023-12-20T01:56:31;100289.97;;;5.28
65316;BMP280;51920;53.952;10.292;2023-12-20T01:59:00;100284.44;;;5.20
65316;BMP280;51920;53.952;10.292;2023-12-20T02:01:27;100282.94;;;5.23
65316;BMP280;51920;53.952;10.292;2023-12-20T02:03:55;100281.28;;;5.18
65316;BMP280;51920;53.952;10.292;2023-12-20T02:06:24;100272.13;;;5.19
65316;BMP280;51920;53.952;10.292;2023-12-20T02:08:53;100265.47;;;5.29
65316;BMP280;51920;53.952;10.292;2023-12-20T02:11:20;100260.69;;;5.22
65316;BMP280;51920;53.952;10.292;2023-12-20T02:13:47;100267.34;;;5.29
65316;BMP280;51920;53.952;10.292;2023-12-20T02:16:14;100265.00;;;5.27
65316;BMP280;51920;53.952;10.292;2023-12-20T02:18:43;100266.91;;;5.26
65316;BMP280;51920;53.952;10.292;2023-12-20T02:21:10;100262.31;;;5.27
65316;BMP280;51920;53.952;10.292;2023-12-20T02:23:37;100258.94;;;5.30
65316;BMP280;51920;53.952;10.292;2023-12-20T02:26:04;100252.50;;;5.35
65316;BMP280;51920;53.952;10.292;2023-12-20T02:28:33;100246.50;;;5.41
65316;BMP280;51920;53.952;10.292;2023-12-20T02:31:00;100239.16;;;5.38
65316;BMP280;51920;53.952;10.292;2023-12-20T02:33:28;100247.22;;;5.38
65316;BMP280;51920;53.952;10.292;2023-12-20T02:35:54;100252.06;;;5.49
65316;BMP280;51920;53.952;10.292;2023-12-20T02:38:21;100247.38;;;5.45
65316;BMP280;51920;53.952;10.292;2023-12-20T02:40:48;100244.00;;;5.49
65316;BMP280;51920;53.952;10.292;2023-12-20T02:43:15;100228.78;;;5.56
65316;BMP280;51920;53.952;10.292;2023-12-20T02:45:42;100216.97;;;5.61
65316;BMP280;51920;53.952;10.292;2023-12-20T02:48:09;100226.53;;;5.58
65316;BMP280;51920;53.952;10.292;2023-12-20T02:50:36;100207.09;;;5.65
65316;BMP280;51920;53.952;10.292;2023-12-20T02:53:03;100211.66;;;5.64
65316;BMP280;51920;53.952;10.292;2023-12-20T02:55:30;100207.84;;;5.65
65316;BMP280;51920;53.952;10.292;2023-12-20T02:57:57;100217.78;;;5.61
65316;BMP280;51920;53.952;10.292;2023-12-20T03:00:24;100202.09;;;5.63
65316;BMP280;51920;53.952;10.292;2023-12-20T03:02:51;100198.97;;;5.61
65316;BMP280;51920;53.952;10.292;2023-12-20T03:05:18;100194.84;;;5.68
65316;BMP280;51920;53.952;10.292;2023-12-20T03:07:45;100195.94;;;5.63
65316;BMP280;51920;53.952;10.292;2023-12-20T03:10:12;100193.09;;;5.75
65316;BMP280;51920;53.952;10.292;2023-12-20T03:12:40;100197.19;;;5.69
65316;BMP280;51920;53.952;10.292;2023-12-20T03:15:08;100190.97;;;5.65
65316;BMP280;51920;53.952;10.292;2023-12-20T03:17:35;100177.94;;;5.67
65316;BMP280;51920;53.952;10.292;2023-12-20T03:20:02;100179.16;;;5.70
65316;BMP280;51920;53.952;10.292;2023-12-20T03:22:29;100178.94;;;5.59
65316;BMP280;51920;53.952;10.292;2023-12-20T03:24:56;100175.63;;;5.65
65316;BMP280;51920;53.952;10.292;2023-12-20T03:27:22;100177.91;;;5.63
65316;BMP280;51920;53.952;10.292;2023-12-20T03:29:49;100167.78;;;5.99
65316;BMP280;51920;53.952;10.292;2023-12-20T03:32:16;100166.03;;;5.88
65316;BMP280;51920;53.952;10.292;2023-12-20T03:34:43;100159.53;;;5.89
65316;BMP280;51920;53.952;10.292;2023-12-20T03:37:10;100160.59;;;5.84
65316;BMP280;51920;53.952;10.292;2023-12-20T03:39:37;100151.47;;;5.89
65316;BMP280;51920;53.952;10.292;2023-12-20T03:42:04;100157.63;;;5.89
65316;BMP280;51920;53.952;10.292;2023-12-20T03:44:30;100147.59;;;5.86
65316;BMP280;51920;53.952;10.292;2023-12-20T03:46:57;100138.66;;;5.82
65316;BMP280;51920;53.952;10.292;2023-12-20T03:49:24;100137.78;;;5.74
65316;BMP280;51920;53.952;10.292;2023-12-20T03:51:51;100141.88;;;5.68
65316;BMP280;51920;53.952;10.292;2023-12-20T03:54:18;100134.34;;;5.74
65316;BMP280;51920;53.952;10.292;2023-12-20T03:56:45;100132.19;;;5.83
65316;BMP280;51920;53.952;10.292;2023-12-20T03:59:12;100145.16;;;5.77
65316;BMP280;51920;53.952;10.292;2023-12-20T04:01:43;100129.66;;;5.71
65316;BMP280;51920;53.952;10.292;2023-12-20T04:04:10;100117.94;;;5.79
65316;BMP280;51920;53.952;10.292;2023-12-20T04:06:37;100118.16;;;5.70
65316;BMP280;51920;53.952;10.292;2023-12-20T04:09:04;100102.94;;;5.78
65316;BMP280;51920;53.952;10.292;2023-12-20T04:11:31;100121.31;;;5.76
65316;BMP280;51920;53.952;10.292;2023-12-20T04:13:58;100121.31;;;5.76
65316;BMP280;51920;53.952;10.292;2023-12-20T04:16:25;100104.06;;;5.77
65316;BMP280;51920;53.952;10.292;2023-12-20T04:18:51;100109.13;;;5.82
65316;BMP280;51920;53.952;10.292;2023-12-20T04:21:18;100113.31;;;5.79
65316;BMP280;51920;53.952;10.292;2023-12-20T04:23:45;100112.59;;;5.82
65316;BMP280;51920;53.952;10.292;2023-12-20T04:26:12;100113.09;;;5.88
65316;BMP280;51920;53.952;10.292;2023-12-20T04:28:38;100099.16;;;5.82
65316;BMP280;51920;53.952;10.292;2023-12-20T04:31:05;100085.63;;;5.75
65316;BMP280;51920;53.952;10.292;2023-12-20T04:33:32;100071.56;;;5.62
65316;BMP280;51920;53.952;10.292;2023-12-20T04:35:59;100106.16;;;5.87
65316;BMP280;51920;53.952;10.292;2023-12-20T04:38:28;100092.41;;;5.92
65316;BMP280;51920;53.952;10.292;2023-12-20T04:40:54;100073.47;;;5.85
65316;BMP280;51920;53.952;10.292;2023-12-20T04:43:21;100085.59;;;5.98
65316;BMP280;51920;53.952;10.292;2023-12-20T04:45:48;100104.31;;;5.91
65316;BMP280;51920;53.952;10.292;2023-12-20T04:48:15;100086.06;;;5.81
65316;BMP280;51920;53.952;10.292;2023-12-20T04:50:41;100087.81;;;5.93
65316;BMP280;51920;53.952;10.292;2023-12-20T04:53:08;100077.00;;;5.89
65316;BMP280;51920;53.952;10.292;2023-12-20T04:55:35;100086.69;;;5.94
65316;BMP280;51920;53.952;10.292;2023-12-20T04:58:02;100057.88;;;5.71
65316;BMP280;51920;53.952;10.292;2023-12-20T05:00:30;100076.72;;;5.94
65316;BMP280;51920;53.952;10.292;2023-12-20T05:02:57;100073.97;;;5.91
65316;BMP280;51920;53.952;10.292;2023-12-20T05:05:24;100066.34;;;5.96
65316;BMP280;51920;53.952;10.292;2023-12-20T05:07:51;100066.41;;;6.00
65316;BMP280;51920;53.952;10.292;2023-12-20T05:10:19;100059.44;;;5.95
65316;BMP280;51920;53.952;10.292;2023-12-20T05:12:46;100060.09;;;5.89
65316;BMP280;51920;53.952;10.292;2023-12-20T05:15:12;100063.78;;;6.03
65316;BMP280;51920;53.952;10.292;2023-12-20T05:17:39;100080.66;;;6.00
65316;BMP280;51920;53.952;10.292;2023-12-20T05:20:07;100068.69;;;5.98
65316;BMP280;51920;53.952;10.292;2023-12-20T05:22:34;100075.56;;;5.95
65316;BMP280;51920;53.952;10.292;2023-12-20T05:25:01;100070.19;;;5.95
65316;BMP280;51920;53.952;10.292;2023-12-20T05:27:28;100073.41;;;6.04
65316;BMP280;51920;53.952;10.292;2023-12-20T05:29:54;100062.66;;;6.04
65316;BMP280;51920;53.952;10.292;2023-12-20T05:32:24;100049.63;;;6.06
65316;BMP280;51920;53.952;10.292;2023-12-20T05:34:51;100045.81;;;6.08
65316;BMP280;51920;53.952;10.292;2023-12-20T05:37:18;100032.69;;;6.02
65316;BMP280;51920;53.952;10.292;2023-12-20T05:39:45;100026.59;;;6.05
65316;BMP280;51920;53.952;10.292;2023-12-20T05:42:12;100040.75;;;6.02
65316;BMP280;51920;53.952;10.292;2023-12-20T05:44:39;100031.53;;;6.03
65316;BMP280;51920;53.952;10.292;2023-12-20T05:47:06;100039.09;;;5.98
65316;BMP280;51920;53.952;10.292;2023-12-20T05:49:33;100034.94;;;6.00
65316;BMP280;51920;53.952;10.292;2023-12-20T05:51:59;100038.88;;;6.06
65316;BMP280;51920;53.952;10.292;2023-12-20T05:54:26;100012.13;;;5.91
65316;BMP280;51920;53.952;10.292;2023-12-20T05:56:53;100020.78;;;6.03
65316;BMP280;51920;53.952;10.292;2023-12-20T05:59:20;100014.22;;;6.01
65316;BMP280;51920;53.952;10.292;2023-12-20T06:01:47;100005.72;;;5.99
65316;BMP280;51920;53.952;10.292;2023-12-20T06:04:14;100011.22;;;6.06
65316;BMP280;51920;53.952;10.292;2023-12-20T06:06:42;100010.09;;;6.11
65316;BMP280;51920;53.952;10.292;2023-12-20T06:09:09;100017.25;;;5.99
65316;BMP280;51920;53.952;10.292;2023-12-20T06:11:37;100018.81;;;6.00
65316;BMP280;51920;53.952;10.292;2023-12-20T06:14:04;100017.25;;;5.99
65316;BMP280;51920;53.952;10.292;2023-12-20T06:16:31;100014.13;;;5.94
65316;BMP280;51920;53.952;10.292;2023-12-20T06:18:58;100000.28;;;5.92
65316;BMP280;51920;53.952;10.292;2023-12-20T06:21:25;99999.84;;;5.90
65316;BMP280;51920;53.952;10.292;2023-12-20T06:23:51;99996.09;;;5.98
65316;BMP280;51920;53.952;10.292;2023-12-20T06:26:18;99993.00;;;5.96
65316;BMP280;51920;53.952;10.292;2023-12-20T06:28:45;99986.72;;;5.84
65316;BMP280;51920;53.952;10.292;2023-12-20T06:31:13;99993.78;;;5.96
65316;BMP280;51920;53.952;10.292;2023-12-20T06:33:40;99979.97;;;5.98
65316;BMP280;51920;53.952;10.292;2023-12-20T06:36:13;99987.19;;;5.90
65316;BMP280;51920;53.952;10.292;2023-12-20T06:38:41;99989.16;;;5.93
65316;BMP280;51920;53.952;10.292;2023-12-20T06:41:10;99975.75;;;5.97
65316;BMP280;51920;53.952;10.292;2023-12-20T06:43:39;99970.72;;;5.92
65316;BMP280;51920;53.952;10.292;2023-12-20T06:46:08;99960.81;;;5.99
65316;BMP280;51920;53.952;10.292;2023-12-20T06:48:35;99970.38;;;5.97
65316;BMP280;51920;53.952;10.292;2023-12-20T06:51:02;99963.81;;;5.94
65316;BMP280;51920;53.952;10.292;2023-12-20T06:53:29;99956.81;;;7.77
65316;BMP280;51920;53.952;10.292;2023-12-20T06:55:56;99941.78;;;6.42
65316;BMP280;51920;53.952;10.292;2023-12-20T06:58:23;99942.91;;;6.11
65316;BMP280;51920;53.952;10.292;2023-12-20T07:00:50;99941.94;;;5.96
65316;BMP280;51920;53.952;10.292;2023-12-20T07:03:18;99937.19;;;5.85
65316;BMP280;51920;53.952;10.292;2023-12-20T07:05:44;99946.75;;;5.83
65316;BMP280;51920;53.952;10.292;2023-12-20T07:08:11;99948.50;;;5.95
65316;BMP280;51920;53.952;10.292;2023-12-20T07:10:41;99946.94;;;5.94
65316;BMP280;51920;53.952;10.292;2023-12-20T07:13:08;99951.13;;;5.91
65316;BMP280;51920;53.952;10.292;2023-12-20T07:15:35;99955.44;;;5.99
65316;BMP280;51920;53.952;10.292;2023-12-20T07:18:03;99953.09;;;5.98
65316;BMP280;51920;53.952;10.292;2023-12-20T07:20:31;99948.94;;;6.00
65316;BMP280;51920;53.952;10.292;2023-12-20T07:22:59;99929.72;;;5.98
65316;BMP280;51920;53.952;10.292;2023-12-20T07:25:26;99927.50;;;6.04
65316;BMP280;51920;53.952;10.292;2023-12-20T07:27:53;99934.75;;;6.03
65316;BMP280;51920;53.952;10.292;2023-12-20T07:30:20;99926.69;;;6.03
65316;BMP280;51920;53.952;10.292;2023-12-20T07:32:46;99920.41;;;5.92
65316;BMP280;51920;53.952;10.292;2023-12-20T07:35:15;99927.19;;;6.09
65316;BMP280;51920;53.952;10.292;2023-12-20T07:37:42;99894.69;;;5.91
65316;BMP280;51920;53.952;10.292;2023-12-20T07:40:09;99924.06;;;6.11
65316;BMP280;51920;53.952;10.292;2023-12-20T07:42:36;99922.25;;;6.15
65316;BMP280;51920;53.952;10.292;2023-12-20T07:45:04;99926.47;;;6.16
65316;BMP280;51920;53.952;10.292;2023-12-20T07:47:31;99923.28;;;6.06
65316;BMP280;51920;53.952;10.292;2023-12-20T07:49:57;99915.63;;;6.09
65316;BMP280;51920;53.952;10.292;2023-12-20T07:52:24;99911.41;;;6.08
65316;BMP280;51920;53.952;10.292;2023-12-20T07:54:52;99920.69;;;6.14
65316;BMP280;51920;53.952;10.292;2023-12-20T07:57:19;99917.28;;;6.17
65316;BMP280;51920;53.952;10.292;2023-12-20T07:59:46;99901.50;;;6.15
65316;BMP280;51920;53.952;10.292;2023-12-20T08:02:13;99907.34;;;6.21
65316;BMP280;51920;53.952;10.292;2023-12-20T08:04:39;99904.25;;;6.19
65316;BMP280;51920;53.952;10.292;2023-12-20T08:07:07;99904.25;;;6.19
65316;BMP280;51920;53.952;10.292;2023-12-20T08:09:34;99905.44;;;6.21
65316;BMP280;51920;53.952;10.292;2023-12-20T08:12:03;99909.97;;;6.17
65316;BMP280;51920;53.952;10.292;2023-12-20T08:14:30;99917.56;;;6.12
65316;BMP280;51920;53.952;10.292;2023-12-20T08:16:58;99902.66;;;6.14
65316;BMP280;51920;53.952;10.292;2023-12-20T08:19:24;99906.56;;;6.20
65316;BMP280;51920;53.952;10.292;2023-12-20T08:21:51;99890.16;;;6.29
65316;BMP280;51920;53.952;10.292;2023-12-20T08:24:18;99879.63;;;6.17
65316;BMP280;51920;53.952;10.292;2023-12-20T08:26:45;99857.66;;;6.11
65316;BMP280;51920;53.952;10.292;2023-12-20T08:29:13;99865.50;;;6.23
65316;BMP280;51920;53.952;10.292;2023-12-20T08:31:40;99857.81;;;6.22
65316;BMP280;51920;53.952;10.292;2023-12-20T08:34:07;99850.50;;;6.22
65316;BMP280;51920;53.952;10.292;2023-12-20T08:36:34;99832.22;;;6.39
65316;BMP280;51920;53.952;10.292;2023-12-20T08:39:01;99834.22;;;6.45
65316;BMP280;51920;53.952;10.292;2023-12-20T08:41:30;99845.78;;;6.50
65316;BMP280;51920;53.952;10.292;2023-12-20T08:43:56;99835.31;;;6.37
65316;BMP280;51920;53.952;10.292;2023-12-20T08:46:23;99838.03;;;6.41
65316;BMP280;51920;53.952;10.292;2023-12-20T08:48:50;99827.31;;;6.44
65316;BMP280;51920;53.952;10.292;2023-12-20T08:51:17;99833.47;;;6.45
65316;BMP280;51920;53.952;10.292;2023-12-20T08:53:44;99844.94;;;6.42
65316;BMP280;51920;53.952;10.292;2023-12-20T08:56:11;99830.41;;;6.46
65316;BMP280;51920;53.952;10.292;2023-12-20T08:58:38;99846.59;;;6.50
65316;BMP280;51920;53.952;10.292;2023-12-20T09:01:05;99843.41;;;6.41
65316;BMP280;51920;53.952;10.292;2023-12-20T09:03:32;99859.59;;;6.44
65316;BMP280;51920;53.952;10.292;2023-12-20T09:05:59;99864.56;;;6.46
65316;BMP280;51920;53.952;10.292;2023-12-20T09:08:26;99880.34;;;6.47
65316;BMP280;51920;53.952;10.292;2023-12-20T09:10:53;99874.81;;;6.33
65316;BMP280;51920;53.952;10.292;2023-12-20T09:13:19;99893.41;;;6.45
65316;BMP280;51920;53.952;10.292;2023-12-20T09:15:47;99857.16;;;6.32
65316;BMP280;51920;53.952;10.292;2023-12-20T09:18:14;99848.25;;;6.28
65316;BMP280;51920;53.952;10.292;2023-12-20T09:20:40;99844.69;;;6.17
65316;BMP280;51920;53.952;10.292;2023-12-20T09:23:07;99860.03;;;6.16
65316;BMP280;51920;53.952;10.292;2023-12-20T09:25:34;99856.19;;;6.17
65316;BMP280;51920;53.952;10.292;2023-12-20T09:28:01;99872.81;;;6.26
65316;BMP280;51920;53.952;10.292;2023-12-20T09:30:28;99862.41;;;6.21
65316;BMP280;51920;53.952;10.292;2023-12-20T09:32:55;99869.81;;;6.32
65316;BMP280;51920;53.952;10.292;2023-12-20T09:35:23;99881.25;;;6.21
65316;BMP280;51920;53.952;10.292;2023-12-20T09:37:50;99879.94;;;6.12
65316;BMP280;51920;53.952;10.292;2023-12-20T09:40:20;99889.34;;;6.25
65316;BMP280;51920;53.952;10.292;2023-12-20T09:43:04;99887.63;;;6.10
65316;BMP280;51920;53.952;10.292;2023-12-20T09:45:32;99896.31;;;5.99
65316;BMP280;51920;53.952;10.292;2023-12-20T09:47:59;99906.44;;;6.10
65316;BMP280;51920;53.952;10.292;2023-12-20T09:50:27;99903.94;;;5.97
65316;BMP280;51920;53.952;10.292;2023-12-20T09:52:56;99872.69;;;5.85
65316;BMP280;51920;53.952;10.292;2023-12-20T09:55:27;99884.34;;;5.93
65316;BMP280;51920;53.952;10.292;2023-12-20T09:57:55;99899.50;;;5.82
65316;BMP280;51920;53.952;10.292;2023-12-20T10:00:22;99887.63;;;5.79
65316;BMP280;51920;53.952;10.292;2023-12-20T10:02:59;99896.03;;;5.78
65316;BMP280;51920;53.952;10.292;2023-12-20T10:05:28;99897.91;;;5.74
65316;BMP280;51920;53.952;10.292;2023-12-20T10:07:56;99894.22;;;5.59
65316;BMP280;51920;53.952;10.292;2023-12-20T10:10:23;99888.47;;;5.60
65316;BMP280;51920;53.952;10.292;2023-12-20T10:13:09;99904.69;;;5.68
65316;BMP280;51920;53.952;10.292;2023-12-20T10:15:37;99900.81;;;5.65
65316;BMP280;51920;53.952;10.292;2023-12-20T10:18:04;99903.69;;;5.76
65316;BMP280;51920;53.952;10.292;2023-12-20T10:20:32;99905.53;;;5.72
65316;BMP280;51920;53.952;10.292;2023-12-20T10:23:00;99903.34;;;5.81
65316;BMP280;51920;53.952;10.292;2023-12-20T10:25:27;99899.69;;;5.96
65316;BMP280;51920;53.952;10.292;2023-12-20T10:30:36;99890.38;;;6.17
65316;BMP280;51920;53.952;10.292;2023-12-20T10:33:02;99876.41;;;6.04
65316;BMP280;51920;53.952;10.292;2023-12-20T10:35:29;99873.50;;;5.86
65316;BMP280;51920;53.952;10.292;2023-12-20T10:37:56;99888.06;;;5.85
65316;BMP280;51920;53.952;10.292;2023-12-20T10:40:25;99883.63;;;6.00
65316;BMP280;51920;53.952;10.292;2023-12-20T10:42:54;99885.13;;;5.97
65316;BMP280;51920;53.952;10.292;2023-12-20T10:45:22;99877.22;;;6.08
65316;BMP280;51920;53.952;10.292;2023-12-20T10:47:50;99880.16;;;6.30
65316;BMP280;51920;53.952;10.292;2023-12-20T10:50:19;99884.69;;;6.22
65316;BMP280;51920;53.952;10.292;2023-12-20T10:52:47;99892.94;;;6.06
65316;BMP280;51920;53.952;10.292;2023-12-20T10:55:14;99889.72;;;5.93
65316;BMP280;51920;53.952;10.292;2023-12-20T10:57:41;99891.19;;;5.91
65316;BMP280;51920;53.952;10.292;2023-12-20T11:00:13;99882.69;;;5.85
65316;BMP280;51920;53.952;10.292;2023-12-20T11:02:41;99883.13;;;5.91
65316;BMP280;51920;53.952;10.292;2023-12-20T11:08:04;99883.97;;;5.68
65316;BMP280;51920;53.952;10.292;2023-12-20T11:10:51;99869.75;;;5.68
65316;BMP280;51920;53.952;10.292;2023-12-20T11:13:27;99868.97;;;5.63
65316;BMP280;51920;53.952;10.292;2023-12-20T11:15:56;99877.03;;;5.63
65316;BMP280;51920;53.952;10.292;2023-12-20T11:18:30;99882.63;;;5.81
65316;BMP280;51920;53.952;10.292;2023-12-20T11:21:06;99881.84;;;5.81
65316;BMP280;51920;53.952;10.292;2023-12-20T11:23:33;99863.03;;;5.81
65316;BMP280;51920;53.952;10.292;2023-12-20T11:26:02;99872.22;;;6.06
65316;BMP280;51920;53.952;10.292;2023-12-20T11:28:29;99857.72;;;6.15
65316;BMP280;51920;53.952;10.292;2023-12-20T11:30:58;99856.84;;;6.07
65316;BMP280;51920;53.952;10.292;2023-12-20T11:33:37;99872.22;;;6.06
65316;BMP280;51920;53.952;10.292;2023-12-20T11:36:13;99876.00;;;6.02
65316;BMP280;51920;53.952;10.292;2023-12-20T11:38:56;99873.38;;;6.05
65316;BMP280;51920;53.952;10.292;2023-12-20T11:41:24;99871.91;;;6.15
65316;BMP280;51920;53.952;10.292;2023-12-20T11:43:55;99867.19;;;6.05
65316;BMP280;51920;53.952;10.292;2023-12-20T11:46:22;99868.41;;;6.08
65316;BMP280;51920;53.952;10.292;2023-12-20T11:48:50;99877.00;;;6.20
65316;BMP280;51920;53.952;10.292;2023-12-20T11:51:17;99868.47;;;6.15
65316;BMP280;51920;53.952;10.292;2023-12-20T11:53:43;99871.16;;;6.15
65316;BMP280;51920;53.952;10.292;2023-12-20T11:56:10;99868.91;;;6.20
65316;BMP280;51920;53.952;10.292;2023-12-20T11:58:37;99862.31;;;6.14
65316;BMP280;51920;53.952;10.292;2023-12-20T12:01:04;99862.38;;;6.18
65316;BMP280;51920;53.952;10.292;2023-12-20T12:03:35;99837.69;;;6.12
65316;BMP280;51920;53.952;10.292;2023-12-20T12:06:03;99851.66;;;6.21
65316;BMP280;51920;53.952;10.292;2023-12-20T12:08:31;99844.03;;;6.27
65316;BMP280;51920;53.952;10.292;2023-12-20T12:10:58;99848.94;;;6.18
65316;BMP280;51920;53.952;10.292;2023-12-20T12:13:24;99847.78;;;6.19
65316;BMP280;51920;53.952;10.292;2023-12-20T12:15:53;99850.22;;;6.31
65316;BMP280;51920;53.952;10.292;2023-12-20T12:18:20;99842.59;;;6.40
65316;BMP280;51920;53.952;10.292;2023-12-20T12:20:47;99862.47;;;6.62
65316;BMP280;51920;53.952;10.292;2023-12-20T12:23:14;99849.47;;;6.72
65316;BMP280;51920;53.952;10.292;2023-12-20T12:25:49;99841.25;;;6.57
65316;BMP280;51920;53.952;10.292;2023-12-20T12:28:15;99844.25;;;6.49
65316;BMP280;51920;53.952;10.292;2023-12-20T12:30:43;99843.13;;;6.53
65316;BMP280;51920;53.952;10.292;2023-12-20T12:33:22;99843.59;;;6.59
65316;BMP280;51920;53.952;10.292;2023-12-20T12:35:49;99848.94;;;6.55
65316;BMP280;51920;53.952;10.292;2023-12-20T12:38:15;99848.94;;;6.55
65316;BMP280;51920;53.952;10.292;2023-12-20T12:40:43;99848.97;;;6.59
65316;BMP280;51920;53.952;10.292;2023-12-20T12:43:10;99854.28;;;6.52
65316;BMP280;51920;53.952;10.292;2023-12-20T12:45:37;99856.16;;;6.47
65316;BMP280;51920;53.952;10.292;2023-12-20T12:48:04;99855.75;;;6.45
65316;BMP280;51920;53.952;10.292;2023-12-20T12:50:31;99855.03;;;6.49
65316;BMP280;51920;53.952;10.292;2023-12-20T12:52:58;99858.84;;;6.47
65316;BMP280;51920;53.952;10.292;2023-12-20T12:55:25;99857.63;;;6.41
65316;BMP280;51920;53.952;10.292;2023-12-20T12:57:52;99855.03;;;6.49
65316;BMP280;51920;53.952;10.292;2023-12-20T13:00:19;99850.81;;;6.51
65316;BMP280;51920;53.952;10.292;2023-12-20T13:02:46;99846.44;;;6.36
65316;BMP280;51920;53.952;10.292;2023-12-20T13:05:13;99854.50;;;6.36
65316;BMP280;51920;53.952;10.292;2023-12-20T13:07:39;99851.03;;;6.35
65316;BMP280;51920;53.952;10.292;2023-12-20T13:10:06;99854.88;;;6.34
65316;BMP280;51920;53.952;10.292;2023-12-20T13:12:33;99858.66;;;6.30
65316;BMP280;51920;53.952;10.292;2023-12-20T13:15:00;99854.16;;;6.37
65316;BMP280;51920;53.952;10.292;2023-12-20T13:17:27;99857.97;;;6.36
65316;BMP280;51920;53.952;10.292;2023-12-20T13:19:54;99861.69;;;6.28
65316;BMP280;51920;53.952;10.292;2023-12-20T13:22:21;99862.94;;;6.34
65316;BMP280;51920;53.952;10.292;2023-12-20T13:24:48;99854.94;;;6.41
65316;BMP280;51920;53.952;10.292;2023-12-20T13:27:15;99857.25;;;6.43
65316;BMP280;51920;53.952;10.292;2023-12-20T13:29:42;99864.97;;;6.44
65316;BMP280;51920;53.952;10.292;2023-12-20T13:32:08;99856.94;;;6.48
65316;BMP280;51920;53.952;10.292;2023-12-20T13:34:35;99862.78;;;6.57
65316;BMP280;51920;53.952;10.292;2023-12-20T13:37:02;99862.44;;;6.59
65316;BMP280;51920;53.952;10.292;2023-12-20T13:39:31;99868.63;;;6.63
65316;BMP280;51920;53.952;10.292;2023-12-20T13:41:58;99865.94;;;6.63
65316;BMP280;51920;53.952;10.292;2023-12-20T13:44:26;99875.06;;;6.58
65316;BMP280;51920;53.952;10.292;2023-12-20T13:46:52;99868.56;;;6.59
65316;BMP280;51920;53.952;10.292;2023-12-20T13:49:19;99876.69;;;6.63
65316;BMP280;51920;53.952;10.292;2023-12-20T13:51:47;99877.00;;;6.58
65316;BMP280;51920;53.952;10.292;2023-12-20T13:54:14;99881.25;;;6.59
65316;BMP280;51920;53.952;10.292;2023-12-20T13:56:43;99885.06;;;6.58
65316;BMP280;51920;53.952;10.292;2023-12-20T13:59:12;99886.63;;;6.59
65316;BMP280;51920;53.952;10.292;2023-12-20T14:01:40;99897.69;;;6.50
65316;BMP280;51920;53.952;10.292;2023-12-20T14:04:07;99901.84;;;6.44
65316;BMP280;51920;53.952;10.292;2023-12-20T14:06:34;99881.66;;;6.27
65316;BMP280;51920;53.952;10.292;2023-12-20T14:09:01;99900.59;;;6.34
65316;BMP280;51920;53.952;10.292;2023-12-20T14:11:30;99893.56;;;6.26